ADDS TAF Data INFO
IDs: Format: Raw Decoded Include METARs

Data at: 2103 UTC 24 Apr 2018

KOAJ 242035Z 2421/2518 08010KT P6SM VCSH BKN025
  FM250200 16005KT P6SM SCT015
  FM250500 19003KT 5SM BR SCT025
  FM251200 21006KT P6SM BKN090 AMD LTD TO CLD VIS AND WIND